Time;durP1;ratioP1;P1;durP2;ratioP2;P2;SDS_P1;SDS_P2;PMS_P1;PMS_P2;Temp;Humidity;BMP_temperature;BMP_pressure;BME280_temperature;BME280_humidity;BME280_pressure;Samples;Min_cycle;Max_cycle;Signal;HPM_P1;HPM_P2
2022/05/28 00:01:36;;;;;;;8.77;2.47;;;;;;;;;;5057041;28;20040;-83
2022/05/28 00:04:04;;;;;;;10.27;1.95;;;;;;;;;;5056790;28;20434;-83
2022/05/28 00:06:32;;;;;;;12.75;2.28;;;11.40;99.90;;;;;;5033734;28;20107;-83
2022/05/28 00:08:58;;;;;;;12.93;2.17;;;;;;;;;;5037044;28;20041;-84
2022/05/28 00:11:26;;;;;;;6.63;2.03;;;;;;;;;;5039856;28;20040;-83
2022/05/28 00:13:52;;;;;;;6.80;1.90;;;;;;;;;;5056722;28;20041;-82
2022/05/28 00:16:19;;;;;;;5.10;1.75;;;;;;;;;;5038514;28;20083;-82
2022/05/28 00:18:46;;;;;;;5.80;2.00;;;;;;;;;;5039746;28;20106;-82
2022/05/28 00:21:15;;;;;;;9.23;2.22;;;11.00;99.90;;;;;;5054247;28;20102;-82
2022/05/28 00:23:44;;;;;;;5.57;1.95;;;;;;;;;;5039968;28;20040;-84
2022/05/28 00:26:10;;;;;;;5.72;1.83;;;;;;;;;;5057042;28;20045;-82
2022/05/28 00:28:36;;;;;;;6.25;1.92;;;;;;;;;;5055370;28;20049;-84
2022/05/28 00:31:02;;;;;;;5.38;1.85;;;;;;;;;;5040247;28;20071;-84
2022/05/28 00:33:30;;;;;;;7.55;1.90;;;;;;;;;;5056307;28;20093;-81
2022/05/28 00:35:56;;;;;;;10.13;2.00;;;;;;;;;;5056345;28;20040;-85
2022/05/28 00:38:24;;;;;;;20.15;3.05;;;;;;;;;;5069170;28;20112;-82
2022/05/28 00:40:51;;;;;;;6.65;1.92;;;;;;;;;;5056342;28;20036;-82
2022/05/28 00:43:17;;;;;;;8.27;1.67;;;;;;;;;;5054420;28;20040;-82
2022/05/28 00:45:45;;;;;;;7.07;1.42;;;;;;;;;;5036385;28;20040;-84
2022/05/28 00:48:12;;;;;;;6.82;2.10;;;;;;;;;;5054943;28;20057;-85
2022/05/28 00:50:39;;;;;;;11.50;2.00;;;;;;;;;;5040287;28;20084;-82
2022/05/28 00:53:05;;;;;;;7.80;1.80;;;;;;;;;;5054798;28;20044;-83
2022/05/28 00:55:32;;;;;;;9.40;1.63;;;10.90;99.90;;;;;;5039320;28;20050;-84
2022/05/28 00:57:59;;;;;;;7.65;1.85;;;;;;;;;;5039196;28;20048;-83
2022/05/28 01:00:25;;;;;;;4.05;1.75;;;;;;;;;;5041320;28;20412;-83
2022/05/28 01:03:13;;;;;;;3.10;1.67;;;;;;;;;;5039238;28;20512;-84
2022/05/28 01:05:48;;;;;;;10.38;2.30;;;;;;;;;;5038854;28;20543;-83
2022/05/28 01:08:32;;;;;;;6.72;2.25;;;;;;;;;;5041910;28;20039;-83
2022/05/28 01:11:22;;;;;;;5.00;1.45;;;10.60;99.90;;;;;;5039310;28;20040;-82
2022/05/28 01:13:57;;;;;;;8.60;1.73;;;10.30;99.90;;;;;;5029729;28;20038;-83
2022/05/28 01:17:00;;;;;;;4.90;1.98;;;10.50;99.90;;;;;;5037300;28;20516;-84
2022/05/28 01:19:28;;;;;;;12.18;2.33;;;;;;;;;;5033515;28;20090;-85
2022/05/28 01:22:04;;;;;;;7.55;2.00;;;;;;;;;;5017917;28;20057;-85
2022/05/28 01:24:53;;;;;;;4.95;1.88;;;;;;;;;;5034389;28;20045;-84
2022/05/28 01:27:23;;;;;;;10.10;1.67;;;;;;;;;;5018092;28;20048;-83
2022/05/28 01:29:52;;;;;;;10.52;1.90;;;;;;;;;;5033479;28;20041;-85
2022/05/28 01:32:19;;;;;;;8.95;1.95;;;;;;;;;;5034106;28;20081;-87
2022/05/28 01:34:46;;;;;;;15.10;2.80;;;;;;;;;;5017648;28;20053;-87
2022/05/28 01:37:13;;;;;;;6.45;1.90;;;;;;;;;;5017235;28;20462;-87
2022/05/28 01:39:40;;;;;;;8.45;2.00;;;;;;;;;;5050861;28;20053;-84
2022/05/28 01:42:08;;;;;;;4.50;1.77;;;;;;;;;;5029262;28;20140;-84
2022/05/28 01:44:34;;;;;;;6.50;1.52;;;;;;;;;;5030514;28;20045;-83
2022/05/28 01:47:00;;;;;;;8.25;1.70;;;;;;;;;;5047452;28;20132;-83
2022/05/28 01:49:27;;;;;;;12.98;2.00;;;;;;;;;;5030917;28;20072;-86
2022/05/28 01:51:56;;;;;;;10.73;3.00;;;10.50;99.90;;;;;;5047587;28;20060;-83
2022/05/28 01:54:24;;;;;;;5.70;1.65;;;;;;;;;;5021034;28;20080;-84
2022/05/28 01:56:52;;;;;;;13.02;2.35;;;;;;;;;;5038602;28;20140;-82
2022/05/28 01:59:23;;;;;;;12.77;2.53;;;;;;;;;;5038444;28;20141;-83
2022/05/28 02:01:49;;;;;;;9.63;2.78;;;;;;;;;;5054305;28;20041;-84
2022/05/28 02:04:16;;;;;;;6.45;2.53;;;;;;;;;;5036332;28;20111;-83
2022/05/28 02:06:42;;;;;;;7.72;2.05;;;;;;;;;;5033586;28;20480;-84
2022/05/28 02:09:14;;;;;;;9.88;2.40;;;;;;;;;;5054717;28;20063;-82
2022/05/28 02:12:07;;;;;;;7.95;2.42;;;10.40;99.90;;;;;;5037744;28;20050;-86
2022/05/28 02:14:33;;;;;;;9.13;2.97;;;;;;;;;;5026854;28;20045;-82
2022/05/28 02:17:21;;;;;;;8.05;2.40;;;;;;;;;;5030991;28;20041;-82
2022/05/28 02:20:05;;;;;;;7.65;2.03;;;10.60;99.90;;;;;;5047793;28;20509;-83
2022/05/28 02:22:31;;;;;;;7.85;2.45;;;;;;;;;;5023523;28;20418;-83
2022/05/28 02:25:00;;;;;;;12.20;2.35;;;;;;;;;;5051619;28;20052;-84
2022/05/28 02:27:29;;;;;;;9.38;2.25;;;;;;;;;;5054152;28;20396;-83
2022/05/28 02:29:55;;;;;;;12.02;2.35;;;;;;;;;;5050676;28;20041;-86
2022/05/28 02:32:23;;;;;;;13.13;2.97;;;10.40;99.90;;;;;;5068981;28;20076;-83
2022/05/28 02:34:50;;;;;;;11.63;2.58;;;;;;;;;;5034928;28;20063;-82
2022/05/28 02:37:18;;;;;;;10.90;2.45;;;;;;;;;;5035399;28;20060;-84
2022/05/28 02:39:44;;;;;;;14.43;3.00;;;;;;;;;;5037171;28;20098;-85
2022/05/28 02:42:10;;;;;;;9.23;2.83;;;;;;;;;;5037244;28;20040;-83
2022/05/28 02:44:36;;;;;;;5.25;2.55;;;;;;;;;;5052897;28;20076;-84
2022/05/28 02:47:02;;;;;;;16.83;3.00;;;;;;;;;;5037427;28;20401;-84
2022/05/28 02:49:28;;;;;;;14.48;2.55;;;;;;;;;;5037096;28;20044;-84
2022/05/28 02:51:54;;;;;;;13.95;3.03;;;;;;;;;;5037192;28;20060;-87
2022/05/28 02:54:22;;;;;;;14.27;3.05;;;;;;;;;;5039338;28;20037;-84
2022/05/28 02:56:48;;;;;;;14.80;3.95;;;;;;;;;;5037213;28;20078;-85
2022/05/28 02:59:15;;;;;;;9.40;2.72;;;;;;;;;;5053702;28;20084;-85
2022/05/28 03:01:41;;;;;;;13.82;3.03;;;;;;;;;;5037474;28;20044;-85
2022/05/28 03:04:08;;;;;;;5.50;2.40;;;;;;;;;;5039526;28;20036;-87
2022/05/28 03:06:37;;;;;;;14.52;2.53;;;;;;;;;;5053510;28;20047;-86
2022/05/28 03:09:07;;;;;;;7.30;2.67;;;;;;;;;;5053310;28;20447;-87
2022/05/28 03:11:33;;;;;;;15.32;3.45;;;;;;;;;;5037095;28;20048;-86
2022/05/28 03:13:59;;;;;;;10.18;2.80;;;;;;;;;;5035389;28;20128;-83
2022/05/28 03:16:26;;;;;;;13.43;2.33;;;;;;;;;;5038945;28;20071;-86
2022/05/28 03:18:52;;;;;;;7.88;3.20;;;;;;;;;;5057798;28;20115;-87
2022/05/28 03:21:18;;;;;;;13.48;2.92;;;;;;;;;;5040795;28;20041;-85
2022/05/28 03:23:47;;;;;;;11.23;2.88;;;;;;;;;;5054966;28;20056;-83
2022/05/28 03:26:26;;;;;;;6.38;2.53;;;10.90;99.90;;;;;;5041061;28;20527;-87
2022/05/28 03:28:52;;;;;;;14.52;2.70;;;;;;;;;;5041196;28;20048;-84
2022/05/28 03:31:19;;;;;;;8.68;2.90;;;;;;;;;;5041000;28;20048;-84
2022/05/28 03:33:45;;;;;;;12.80;3.05;;;;;;;;;;5057561;28;20055;-84
2022/05/28 03:36:12;;;;;;;12.57;2.67;;;;;;;;;;5048825;28;20045;-85
2022/05/28 03:38:38;;;;;;;6.72;2.78;;;;;;;;;;5057280;28;20118;-82
2022/05/28 03:41:04;;;;;;;16.83;3.55;;;;;;;;;;5057184;28;20040;-83
2022/05/28 03:43:31;;;;;;;10.20;3.75;;;;;;;;;;5057312;28;20119;-85
2022/05/28 03:45:57;;;;;;;11.38;2.05;;;;;;;;;;5035397;28;20654;-82
2022/05/28 03:48:23;;;;;;;6.45;2.70;;;;;;;;;;5054084;28;20041;-83
2022/05/28 03:50:49;;;;;;;9.68;2.40;;;;;;;;;;5037236;28;20132;-85
2022/05/28 03:53:16;;;;;;;14.98;2.92;;;;;;;;;;5037021;28;20044;-85
2022/05/28 03:55:42;;;;;;;7.78;2.92;;;;;;;;;;5054807;28;20090;-83
2022/05/28 03:58:08;;;;;;;9.50;2.60;;;;;;;;;;5040656;28;20414;-83
2022/05/28 04:00:35;;;;;;;9.95;3.10;;;;;;;;;;5040234;28;20110;-85
2022/05/28 04:03:01;;;;;;;7.82;2.03;;;;;;;;;;5057065;28;20071;-83
2022/05/28 04:05:27;;;;;;;10.32;2.58;;;;;;;;;;5055072;28;20083;-84
2022/05/28 04:07:53;;;;;;;12.20;2.63;;;;;;;;;;5056639;28;20042;-83
2022/05/28 04:10:19;;;;;;;13.90;3.22;;;;;;;;;;5040021;28;20048;-84
2022/05/28 04:12:45;;;;;;;9.50;2.78;;;;;;;;;;5040024;28;20087;-84
2022/05/28 04:15:12;;;;;;;6.88;3.20;;;;;;;;;;5033619;28;20049;-84
2022/05/28 04:17:39;;;;;;;15.05;3.00;;;;;;;;;;5036603;28;20044;-83
2022/05/28 04:20:07;;;;;;;9.55;2.53;;;10.50;99.90;;;;;;5036642;28;20087;-84
2022/05/28 04:22:33;;;;;;;7.65;2.72;;;;;;;;;;5036488;28;20087;-84
2022/05/28 04:24:59;;;;;;;11.00;2.92;;;;;;;;;;5052101;28;20037;-85
2022/05/28 04:27:25;;;;;;;14.63;2.83;;;;;;;;;;5036392;28;20107;-86
2022/05/28 04:29:51;;;;;;;7.60;2.63;;;;;;;;;;5036755;28;20509;-87
2022/05/28 04:32:18;;;;;;;11.45;3.20;;;;;;;;;;5053101;28;20386;-84
2022/05/28 04:34:44;;;;;;;17.27;3.63;;;;;;;;;;5036517;28;20467;-84
2022/05/28 04:37:10;;;;;;;15.40;3.95;;;;;;;;;;5021467;28;20056;-85
2022/05/28 04:39:36;;;;;;;16.38;3.08;;;;;;;;;;5036113;28;20178;-83
2022/05/28 04:42:02;;;;;;;17.23;2.92;;;;;;;;;;5019934;28;20052;-85
2022/05/28 04:44:28;;;;;;;8.68;2.08;;;;;;;;;;5019521;28;20041;-85
2022/05/28 04:46:54;;;;;;;9.35;2.72;;;;;;;;;;5047385;28;20041;-85
2022/05/28 04:49:20;;;;;;;9.70;2.78;;;;;;;;;;5040186;28;20048;-87
2022/05/28 04:51:46;;;;;;;13.23;2.47;;;;;;;;;;5040602;28;20090;-85
2022/05/28 04:54:12;;;;;;;13.48;3.00;;;;;;;;;;5039662;28;20048;-87
2022/05/28 04:56:39;;;;;;;12.10;3.08;;;;;;;;;;5053941;28;20127;-87
2022/05/28 04:59:05;;;;;;;7.97;3.17;;;;;;;;;;5019739;28;20110;-87
2022/05/28 05:01:31;;;;;;;11.73;3.33;;;;;;;;;;5019823;28;20094;-85
2022/05/28 05:03:57;;;;;;;7.28;3.22;;;;;;;;;;5036214;28;20051;-88
2022/05/28 05:06:23;;;;;;;12.90;4.25;;;;;;;;;;5019637;28;20049;-89
2022/05/28 05:08:49;;;;;;;13.13;3.15;;;;;;;;;;5051352;28;20041;-88
2022/05/28 05:11:16;;;;;;;12.27;2.88;;;;;;;;;;5056723;28;20041;-90
2022/05/28 05:13:42;;;;;;;9.15;2.67;;;;;;;;;;5059352;28;20131;-89
2022/05/28 05:16:09;;;;;;;7.53;2.55;;;;;;;;;;5077227;28;20037;-88
2022/05/28 05:18:35;;;;;;;14.02;3.35;;;;;;;;;;5059107;28;20485;-88
2022/05/28 05:21:01;;;;;;;12.75;2.97;;;;;;;;;;5042747;28;20447;-89
2022/05/28 05:23:27;;;;;;;17.60;3.40;;;;;;;;;;5057522;28;20041;-90
2022/05/28 05:25:53;;;;;;;10.23;2.35;;;;;;;;;;5076555;28;20084;-88
2022/05/28 05:28:20;;;;;;;12.35;2.95;;;;;;;;;;5042287;28;20514;-90
2022/05/28 05:30:46;;;;;;;6.43;2.30;;;;;;;;;;5059258;28;20051;-89
2022/05/28 05:33:12;;;;;;;11.45;2.80;;;;;;;;;;5057024;28;20451;-88
2022/05/28 05:35:38;;;;;;;8.00;2.30;;;;;;;;;;5061251;28;20044;-90
2022/05/28 05:38:07;;;;;;;14.40;3.50;;;;;;;;;;5061587;28;20060;-86
2022/05/28 05:40:34;;;;;;;7.32;2.78;;;;;;;;;;5059655;28;20123;-86
2022/05/28 05:43:00;;;;;;;15.77;3.22;;;;;;;;;;5040909;28;20051;-85
2022/05/28 05:45:27;;;;;;;10.77;3.25;;;;;;;;;;5023064;28;20037;-85
2022/05/28 05:47:53;;;;;;;13.57;2.92;;;;;;;;;;5073229;28;20513;-86
2022/05/28 05:50:19;;;;;;;9.30;2.85;;;;;;;;;;5022547;28;20051;-82
2022/05/28 05:52:46;;;;;;;10.60;3.50;;;;;;;;;;5037917;28;20041;-83
2022/05/28 05:55:12;;;;;;;13.27;3.10;;;;;;;;;;5036857;28;20501;-82
2022/05/28 05:57:38;;;;;;;19.45;3.30;;;;;;;;;;5031251;28;20040;-82
2022/05/28 06:00:04;;;;;;;9.23;2.67;;;;;;;;;;5040082;28;20037;-83
2022/05/28 06:02:31;;;;;;;6.78;3.42;;;;;;;;;;5056558;28;20048;-83
2022/05/28 06:04:58;;;;;;;11.20;2.28;;;;;;;;;;5056350;28;20051;-82
2022/05/28 06:07:24;;;;;;;11.07;3.25;;;;;;;;;;5073398;28;20045;-86
2022/05/28 06:09:50;;;;;;;11.35;3.13;;;;;;;;;;5037192;28;20048;-83
2022/05/28 06:12:16;;;;;;;13.38;3.25;;;;;;;;;;5036784;28;20080;-82
2022/05/28 06:14:43;;;;;;;11.35;2.70;;;;;;;;;;5036169;28;20165;-83
2022/05/28 06:17:09;;;;;;;12.13;3.67;;;;;;;;;;5019830;28;20049;-83
2022/05/28 06:19:35;;;;;;;6.20;2.20;;;;;;;;;;5045455;28;20409;-83
2022/05/28 06:22:02;;;;;;;5.38;1.55;;;;;;;;;;5053304;28;20057;-82
2022/05/28 06:24:28;;;;;;;7.65;2.17;;;;;;;;;;5020011;28;20045;-87
2022/05/28 06:26:54;;;;;;;14.18;2.42;;;;;;;;;;5037610;28;20091;-87
2022/05/28 06:29:20;;;;;;;6.22;3.20;;;;;;;;;;5061481;23;20049;-87
2022/05/28 06:31:47;;;;;;;6.07;1.60;;;;;;;;;;5037407;28;20048;-87
2022/05/28 06:34:14;;;;;;;11.85;2.42;;;;;;;;;;5052926;28;20045;-86
2022/05/28 06:36:40;;;;;;;2.83;1.38;;;;;;;;;;5037153;28;20059;-86
2022/05/28 06:39:06;;;;;;;3.08;1.48;;;;;;;;;;5053852;28;20172;-89
2022/05/28 06:41:32;;;;;;;2.53;1.38;;;;;;;;;;5019172;28;20052;-86
2022/05/28 06:43:59;;;;;;;6.65;1.80;;;;;;;;;;5020225;28;20037;-87
2022/05/28 06:46:26;;;;;;;7.10;2.30;;;;;;;;;;5020261;28;20045;-87
2022/05/28 06:48:52;;;;;;;9.07;2.33;;;;;;;;;;5019778;28;20408;-84
2022/05/28 06:51:18;;;;;;;4.70;2.00;;;;;;;;;;5051562;28;20106;-90
2022/05/28 06:53:47;;;;;;;9.35;1.60;;;;;;;;;;5022070;28;20563;-88
2022/05/28 06:56:13;;;;;;;5.20;2.22;;;;;;;;;;5038160;28;20103;-88
2022/05/28 06:58:40;;;;;;;5.30;1.42;;;10.70;99.90;;;;;;5040232;28;20048;-90
2022/05/28 07:01:07;;;;;;;9.45;2.50;;;;;;;;;;5026165;28;20488;-86
2022/05/28 07:03:33;;;;;;;7.60;2.63;;;;;;;;;;5024418;28;20051;-86
2022/05/28 07:06:00;;;;;;;12.63;2.45;;;;;;;;;;5042139;28;20135;-85
2022/05/28 07:08:26;;;;;;;9.13;3.83;;;;;;;;;;5041112;28;20076;-81
2022/05/28 07:10:53;;;;;;;8.90;2.60;;;;;;;;;;5038235;28;20508;-82
2022/05/28 07:13:20;;;;;;;8.80;2.38;;;10.70;99.90;;;;;;5060327;28;20067;-82
2022/05/28 07:15:46;;;;;;;13.95;3.05;;;;;;;;;;5025696;28;20076;-86
2022/05/28 07:18:13;;;;;;;12.45;3.20;;;;;;;;;;5021267;28;20045;-88
2022/05/28 07:20:39;;;;;;;14.77;3.67;;;;;;;;;;5021667;28;20493;-82
2022/05/28 07:23:13;;;;;;;12.65;3.40;;;;;;;;;;5034369;28;20045;-83
2022/05/28 07:25:39;;;;;;;21.73;4.07;;;;;;;;;;5018941;28;20040;-88
2022/05/28 07:28:24;;;;;;;10.88;3.20;;;;;;;;;;5020563;28;20111;-95
2022/05/28 07:30:51;;;;;;;6.07;3.10;;;;;;;;;;5037701;28;20493;-93
2022/05/28 07:33:17;;;;;;;15.52;3.30;;;;;;;;;;5015049;28;20099;-89
2022/05/28 07:35:43;;;;;;;13.63;3.95;;;;;;;;;;5035944;28;20044;-94
2022/05/28 07:38:09;;;;;;;13.88;2.88;;;;;;;;;;5034902;28;20138;-91
2022/05/28 07:40:35;;;;;;;11.55;2.90;;;;;;;;;;5031199;28;20045;-90
2022/05/28 07:43:01;;;;;;;14.05;3.40;;;;;;;;;;5017206;28;20100;-86
2022/05/28 07:45:27;;;;;;;19.27;3.22;;;;;;;;;;5017554;28;20041;-91
2022/05/28 07:47:53;;;;;;;12.15;2.55;;;;;;;;;;5017436;28;20128;-84
2022/05/28 07:50:20;;;;;;;10.00;3.08;;;;;;;;;;5051431;28;20049;-88
2022/05/28 07:52:48;;;;;;;18.92;3.63;;;;;;;;;;5034717;28;20535;-88
2022/05/28 07:55:14;;;;;;;13.68;2.90;;;;;;;;;;5033610;28;20048;-89
2022/05/28 07:57:40;;;;;;;11.10;4.30;;;;;;;;;;5051639;28;20140;-88
2022/05/28 08:00:07;;;;;;;8.35;2.75;;;;;;;;;;5051909;28;20124;-89
2022/05/28 08:02:33;;;;;;;10.00;3.65;;;;;;;;;;5035496;28;20057;-88
2022/05/28 08:04:59;;;;;;;11.27;3.53;;;;;;;;;;5053092;28;20041;-87
2022/05/28 08:07:25;;;;;;;20.02;4.28;;;;;;;;;;5036827;28;20055;-88
2022/05/28 08:09:51;;;;;;;19.33;3.45;;;;;;;;;;5036929;28;20080;-88
2022/05/28 08:12:17;;;;;;;22.33;5.05;;;;;;;;;;5020679;28;20099;-88
2022/05/28 08:14:43;;;;;;;12.93;3.80;;;;;;;;;;5032322;28;20132;-86
2022/05/28 08:17:09;;;;;;;10.07;3.38;;;;;;;;;;5034023;28;20132;-85
2022/05/28 08:19:36;;;;;;;13.98;2.53;;;;;;;;;;5020639;28;20389;-86
2022/05/28 08:24:46;;;;;;;15.52;3.53;;;;;;;;;;5036583;28;20051;-87
2022/05/28 08:27:12;;;;;;;5.53;2.72;;;;;;;;;;5027867;28;20045;-86
2022/05/28 08:29:38;;;;;;;6.32;2.70;;;;;;;;;;5019673;28;20053;-88
2022/05/28 08:32:05;;;;;;;11.63;3.15;;;;;;;;;;5019944;28;20140;-85
2022/05/28 08:34:31;;;;;;;7.13;2.35;;;;;;;;;;5036514;28;20131;-89
2022/05/28 08:36:57;;;;;;;12.05;2.20;;;;;;;;;;5019245;28;20044;-85
2022/05/28 08:39:23;;;;;;;12.02;2.65;;;;;;;;;;5036610;28;20096;-87
2022/05/28 08:41:55;;;;;;;9.95;3.47;;;;;;;;;;5017698;28;20045;-87
2022/05/28 08:44:26;;;;;;;13.55;3.17;;;;;;;;;;5019744;28;20095;-88
2022/05/28 08:46:54;;;;;;;15.50;2.33;;;;;;;;;;5026356;28;20041;-86
2022/05/28 08:49:22;;;;;;;9.27;4.13;;;;;;;;;;5045674;28;20044;-87
2022/05/28 08:51:48;;;;;;;14.25;3.05;;;;;;;;;;5030895;28;20041;-85
2022/05/28 08:54:33;;;;;;;10.93;2.17;;;;;;;;;;5053958;28;20504;-86
2022/05/28 08:57:11;;;;;;;17.42;2.88;;;12.60;99.90;;;;;;5055705;28;20520;-84
2022/05/28 08:59:59;;;;;;;12.45;2.60;;;;;;;;;;5039403;28;20098;-86
2022/05/28 09:02:48;;;;;;;7.43;2.22;;;12.60;99.90;;;;;;5055948;28;20048;-83
2022/05/28 09:05:17;;;;;;;7.20;2.28;;;;;;;;;;5038970;28;20581;-87
2022/05/28 09:07:44;;;;;;;12.60;2.90;;;;;;;;;;5023983;28;20037;-86
2022/05/28 09:10:10;;;;;;;7.82;3.22;;;12.60;99.90;;;;;;5035984;28;20112;-85
2022/05/28 09:12:45;;;;;;;10.40;3.08;;;;;;;;;;5035192;28;20485;-82
2022/05/28 09:15:11;;;;;;;11.18;3.10;;;;;;;;;;5050114;28;20048;-87
2022/05/28 09:17:42;;;;;;;16.27;3.00;;;;;;;;;;5039064;28;20500;-88
2022/05/28 09:20:10;;;;;;;7.32;2.88;;;;;;;;;;5055063;28;20040;-88
2022/05/28 09:22:36;;;;;;;16.08;3.10;;;;;;;;;;5058906;28;20041;-89
2022/05/28 09:25:03;;;;;;;8.73;2.83;;;;;;;;;;5024911;28;20133;-86
2022/05/28 09:27:42;;;;;;;11.02;3.25;;;;;;;;;;5056109;28;20048;-85
2022/05/28 09:30:23;;;;;;;9.65;2.97;;;;;;;;;;5054031;28;20052;-88
2022/05/28 09:33:14;;;;;;;9.38;3.03;;;;;;;;;;5049400;28;20052;-88
2022/05/28 09:35:40;;;;;;;14.35;3.05;;;;;;;;;;5026795;28;20072;-86
2022/05/28 09:38:09;;;;;;;14.23;3.22;;;;;;;;;;5041386;28;20393;-86
2022/05/28 09:40:41;;;;;;;18.77;3.42;;;;;;;;;;5054596;28;20102;-87
2022/05/28 09:43:16;;;;;;;14.10;2.90;;;;;;;;;;5054980;28;20051;-87
2022/05/28 09:45:51;;;;;;;9.20;3.08;;;;;;;;;;5022946;28;20095;-86
2022/05/28 09:48:22;;;;;;;10.23;2.72;;;;;;;;;;5022796;28;20131;-85
2022/05/28 09:50:49;;;;;;;4.82;2.17;;;;;;;;;;5022363;28;20053;-85
2022/05/28 09:56:29;;;;;;;7.20;2.45;;;;;;;;;;5038570;28;20049;-83
2022/05/28 09:58:55;;;;;;;9.35;2.15;;;;;;;;;;5002599;28;20049;-83
2022/05/28 10:01:26;;;;;;;12.30;2.55;;;12.50;99.90;;;;;;5044665;28;20042;-87
2022/05/28 10:04:42;;;;;;;12.73;2.03;;;12.70;99.90;;;;;;5059849;28;20041;-85
2022/05/28 10:06:51;;;;;;;14.02;2.92;;;;;;;;;;5048312;28;20439;-86
2022/05/28 10:09:19;;;;;;;6.78;2.30;;;;;;;;;;5060932;28;20080;-87
2022/05/28 10:11:50;;;;;;;9.00;2.92;;;;;;;;;;5056687;28;20036;-86
2022/05/28 10:14:16;;;;;;;5.97;2.00;;;;;;;;;;5060335;28;20158;-88
2022/05/28 10:16:48;;;;;;;8.05;2.03;;;;;;;;;;5058536;28;20591;-83
2022/05/28 10:19:25;;;;;;;6.22;1.80;;;;;;;;;;5041338;28;20044;-85
2022/05/28 10:21:55;;;;;;;7.78;2.45;;;;;;;;;;5055024;28;20052;-83
2022/05/28 10:24:24;;;;;;;8.00;2.30;;;;;;;;;;5019216;28;20049;-84
2022/05/28 10:26:55;;;;;;;13.15;2.35;;;13.20;99.90;;;;;;5048029;28;20072;-88
2022/05/28 10:29:27;;;;;;;6.97;1.95;;;;;;;;;;5040890;28;20060;-85
2022/05/28 10:31:54;;;;;;;8.75;1.80;;;;;;;;;;5025064;28;20528;-83
2022/05/28 10:34:30;;;;;;;5.15;1.70;;;;;;;;;;5049777;28;20105;-86
2022/05/28 10:37:07;;;;;;;18.00;2.63;;;;;;;;;;5023771;28;20052;-84
2022/05/28 10:39:33;;;;;;;8.40;2.08;;;;;;;;;;5039275;28;20040;-83
2022/05/28 10:42:00;;;;;;;6.55;2.20;;;;;;;;;;5061834;28;20083;-85
2022/05/28 10:44:26;;;;;;;7.28;1.90;;;;;;;;;;5033370;28;20456;-86
2022/05/28 10:47:10;;;;;;;4.68;1.70;;;;;;;;;;5050462;28;20093;-88
2022/05/28 10:49:47;;;;;;;17.30;2.75;;;;;;;;;;5047109;28;20048;-83
2022/05/28 10:52:32;;;;;;;7.43;2.63;;;;;;;;;;5029561;28;20040;-85
2022/05/28 10:55:18;;;;;;;11.13;2.88;;;;;;;;;;5027877;28;20053;-84
2022/05/28 10:58:11;;;;;;;19.00;2.85;;;;;;;;;;4929179;29;20130;-84
2022/05/28 11:00:46;;;;;;;11.40;3.10;;;;;;;;;;4934928;29;20570;-84
2022/05/28 11:03:33;;;;;;;10.38;2.42;;;;;;;;;;4931251;29;20130;-83
2022/05/28 11:06:02;;;;;;;10.85;2.30;;;;;;;;;;4930213;28;20464;-89
2022/05/28 11:08:46;;;;;;;11.68;3.88;;;;;;;;;;4941215;29;20167;-87
2022/05/28 11:11:12;;;;;;;7.75;2.58;;;;;;;;;;4917875;28;20129;-83
2022/05/28 11:14:03;;;;;;;9.77;2.38;;;;;;;;;;4929432;29;20123;-88
2022/05/28 11:16:47;;;;;;;5.43;2.10;;;;;;;;;;4929728;29;20078;-89
2022/05/28 11:19:25;;;;;;;13.13;3.10;;;;;;;;;;4930231;29;20161;-87
2022/05/28 11:21:56;;;;;;;11.25;2.67;;;;;;;;;;4923407;29;20082;-86
2022/05/28 11:24:25;;;;;;;9.30;2.13;;;;;;;;;;4928667;29;20055;-88
2022/05/28 11:27:02;;;;;;;5.05;2.60;;;;;;;;;;4935190;29;20062;-87
2022/05/28 11:29:28;;;;;;;13.07;2.85;;;;;;;;;;4928879;29;20055;-87
2022/05/28 11:31:58;;;;;;;9.93;2.92;;;;;;;;;;4925556;29;20074;-86
2022/05/28 11:34:28;;;;;;;10.88;2.67;;;;;;;;;;4944360;28;20069;-85
2022/05/28 11:36:57;;;;;;;4.97;2.00;;;;;;;;;;5021354;28;20131;-83
2022/05/28 11:39:37;;;;;;;8.63;2.45;;;;;;;;;;5026161;28;20056;-83
2022/05/28 11:42:06;;;;;;;9.52;3.15;;;;;;;;;;5020993;28;20079;-84
2022/05/28 11:44:38;;;;;;;6.43;2.10;;;;;;;;;;5033815;28;20044;-87
2022/05/28 11:47:13;;;;;;;6.95;2.90;;;;;;;;;;5032983;28;20044;-82
2022/05/28 11:52:43;;;;;;;7.63;2.60;;;;;;;;;;5051435;28;20471;-83
2022/05/28 11:55:12;;;;;;;6.60;1.80;;;;;;;;;;5019123;28;20140;-84
2022/05/28 11:57:44;;;;;;;6.55;1.92;;;;;;;;;;5014390;28;20040;-83
2022/05/28 12:00:12;;;;;;;8.73;2.22;;;;;;;;;;5047692;28;20148;-84
2022/05/28 12:02:42;;;;;;;9.60;2.03;;;;;;;;;;5047624;28;20136;-83
2022/05/28 12:05:15;;;;;;;7.15;2.58;;;;;;;;;;5033079;28;20350;-82
2022/05/28 12:07:44;;;;;;;17.83;2.60;;;;;;;;;;5003123;28;20099;-82
2022/05/28 12:10:29;;;;;;;21.38;3.25;;;;;;;;;;5005714;28;20397;-87
2022/05/28 12:13:01;;;;;;;14.10;2.83;;;;;;;;;;5023864;28;20151;-85
2022/05/28 12:15:32;;;;;;;12.68;4.60;;;;;;;;;;5048514;28;20041;-84
2022/05/28 12:18:19;;;;;;;9.63;2.63;;;;;;;;;;5028050;28;20096;-81
2022/05/28 12:21:04;;;;;;;6.32;2.30;;;;;;;;;;5014608;28;20091;-82
2022/05/28 12:23:36;;;;;;;6.80;2.80;;;;;;;;;;5030396;28;20121;-83
2022/05/28 12:26:05;;;;;;;9.00;2.22;;;;;;;;;;5028457;28;20476;-84
2022/05/28 12:28:42;;;;;;;8.55;2.78;;;;;;;;;;5027684;28;20351;-83
2022/05/28 12:31:22;;;;;;;6.22;2.53;;;;;;;;;;5009387;28;20064;-82
2022/05/28 12:34:07;;;;;;;10.55;2.45;;;;;;;;;;5037673;28;20506;-83
2022/05/28 12:36:40;;;;;;;7.43;1.92;;;;;;;;;;5036123;28;20469;-83
2022/05/28 12:39:06;;;;;;;3.90;2.00;;;;;;;;;;5015769;28;20064;-83
2022/05/28 12:41:34;;;;;;;9.25;2.08;;;;;;;;;;5010035;28;20048;-87
2022/05/28 12:44:19;;;;;;;6.70;2.00;;;;;;;;;;5010768;28;20136;-87
2022/05/28 12:46:49;;;;;;;10.15;2.13;;;;;;;;;;5003607;28;20465;-87
2022/05/28 12:49:18;;;;;;;8.30;2.08;;;;;;;;;;5026330;28;20144;-84
2022/05/28 12:51:44;;;;;;;11.63;2.50;;;;;;;;;;5028483;28;20045;-87
2022/05/28 12:54:10;;;;;;;6.10;2.10;;;;;;;;;;5045356;28;20055;-83
2022/05/28 12:56:36;;;;;;;14.63;2.15;;;;;;;;;;5039903;28;20127;-85
2022/05/28 12:59:24;;;;;;;8.43;2.28;;;14.30;99.90;;;;;;5056084;28;20109;-87
2022/05/28 13:01:55;;;;;;;8.05;2.63;;;;;;;;;;5017731;28;20071;-87
2022/05/28 13:04:21;;;;;;;7.00;2.08;;;;;;;;;;5036188;28;20412;-87
2022/05/28 13:06:55;;;;;;;8.40;1.98;;;;;;;;;;5017108;28;20041;-83
2022/05/28 13:09:27;;;;;;;13.65;3.00;;;14.20;99.90;;;;;;5022249;28;20528;-87
2022/05/28 13:12:05;;;;;;;4.28;1.85;;;;;;;;;;5021673;28;20493;-87
2022/05/28 13:14:59;;;;;;;7.55;2.42;;;14.00;99.90;;;;;;5016964;28;20053;-86
2022/05/28 13:17:50;;;;;;;8.68;2.05;;;;;;;;;;5019688;28;20407;-88
2022/05/28 13:20:45;;;;;;;2.67;1.80;;;;;;;;;;5019152;28;20045;-87
2022/05/28 13:23:17;;;;;;;6.68;2.10;;;;;;;;;;5023088;28;20520;-88
2022/05/28 13:25:57;;;;;;;2.55;1.38;;;;;;;;;;5016433;28;20044;-85
2022/05/28 13:28:23;;;;;;;3.85;1.35;;;;;;;;;;5033840;28;20115;-89
2022/05/28 13:30:55;;;;;;;7.55;1.40;;;;;;;;;;5035885;28;20139;-88
2022/05/28 13:33:22;;;;;;;9.10;2.10;;;13.70;99.90;;;;;;5031740;28;20103;-87
2022/05/28 13:35:48;;;;;;;4.13;1.60;;;;;;;;;;5019811;28;20110;-87
2022/05/28 13:38:19;;;;;;;6.80;2.05;;;;;;;;;;5028419;28;20057;-86
2022/05/28 13:40:46;;;;;;;3.10;1.50;;;;;;;;;;5030759;28;20037;-87
2022/05/28 13:43:14;;;;;;;5.28;1.90;;;;;;;;;;5049810;28;20387;-88
2022/05/28 13:45:42;;;;;;;10.73;2.17;;;;;;;;;;5018658;28;20045;-86
2022/05/28 13:48:10;;;;;;;9.48;2.25;;;;;;;;;;5035237;28;20509;-87
2022/05/28 13:50:38;;;;;;;4.93;1.67;;;;;;;;;;5009190;28;20081;-86
2022/05/28 13:53:07;;;;;;;5.38;1.42;;;;;;;;;;5031811;28;20132;-86
2022/05/28 13:55:38;;;;;;;19.55;1.95;;;;;;;;;;5031875;28;20136;-89
2022/05/28 13:58:14;;;;;;;13.10;2.35;;;;;;;;;;5033427;28;20584;-88
2022/05/28 14:00:41;;;;;;;8.52;1.92;;;;;;;;;;5007985;28;20045;-88
2022/05/28 14:03:07;;;;;;;10.93;2.35;;;;;;;;;;5016405;28;20040;-87
2022/05/28 14:05:39;;;;;;;5.50;2.08;;;;;;;;;;5052110;28;20037;-88
2022/05/28 14:08:25;;;;;;;8.52;2.35;;;;;;;;;;5049714;28;20128;-86
2022/05/28 14:11:19;;;;;;;9.60;2.45;;;13.20;99.90;;;;;;5018494;28;20045;-87
2022/05/28 14:13:46;;;;;;;11.45;2.42;;;;;;;;;;5017429;28;20099;-88
2022/05/28 14:16:21;;;;;;;6.63;1.80;;;12.90;99.90;;;;;;5051824;28;20052;-88
2022/05/28 14:18:48;;;;;;;11.88;3.03;;;;;;;;;;5019546;28;20496;-86
2022/05/28 14:21:20;;;;;;;7.22;3.20;;;;;;;;;;5016457;28;20040;-88
2022/05/28 14:23:47;;;;;;;7.65;2.50;;;;;;;;;;5032077;28;20049;-87
2022/05/28 14:26:14;;;;;;;9.90;2.20;;;;;;;;;;5032805;28;20053;-85
2022/05/28 14:28:41;;;;;;;9.05;2.20;;;;;;;;;;5016175;28;20037;-88
2022/05/28 14:31:07;;;;;;;5.63;1.50;;;;;;;;;;5016968;28;20057;-88
2022/05/28 14:33:40;;;;;;;2.40;1.05;;;13.30;99.90;;;;;;5050963;28;20045;-88
2022/05/28 14:36:12;;;;;;;3.28;1.40;;;12.90;99.90;;;;;;5018520;28;20045;-85
2022/05/28 14:38:39;;;;;;;7.88;1.42;;;;;;;;;;5018828;28;20068;-88
2022/05/28 14:41:13;;;;;;;6.22;1.50;;;12.80;99.90;;;;;;5034522;28;20084;-87
2022/05/28 14:43:40;;;;;;;7.88;1.70;;;;;;;;;;5018533;28;20400;-89
2022/05/28 14:46:25;;;;;;;2.47;1.40;;;;;;;;;;5014109;28;20132;-88
2022/05/28 14:49:05;;;;;;;6.53;1.63;;;;;;;;;;5032076;28;20055;-88
2022/05/28 14:51:34;;;;;;;4.38;1.95;;;;;;;;;;5018203;28;20080;-85